createdAt,value
2019-02-23T00:00:51.011Z,76.52
2019-02-23T00:01:52.596Z,76.55
2019-02-23T00:02:51.026Z,76.49
2019-02-23T00:03:51.040Z,76.44
2019-02-23T00:04:50.783Z,76.3
2019-02-23T00:05:50.763Z,76.23
2019-02-23T00:06:50.950Z,76.23
2019-02-23T00:07:50.981Z,76.15
2019-02-23T00:08:50.784Z,75.85
2019-02-23T00:09:50.820Z,75.97
2019-02-23T00:10:51.689Z,76.07
2019-02-23T00:11:50.687Z,76.12
2019-02-23T00:12:51.091Z,76.09
2019-02-23T00:13:50.816Z,76.02
2019-02-23T00:14:51.212Z,76.1
2019-02-23T00:15:50.965Z,75.65
2019-02-23T00:16:51.112Z,75.77
2019-02-23T00:17:52.551Z,75.83
2019-02-23T00:18:50.798Z,75.87
2019-02-23T00:19:50.939Z,75.86
2019-02-23T00:20:50.724Z,76
2019-02-23T00:21:50.793Z,76.15
2019-02-23T00:22:51.793Z,76.04
2019-02-23T00:23:50.768Z,75.94
2019-02-23T00:24:51.029Z,75.99
2019-02-23T00:25:50.949Z,76.17
2019-02-23T00:26:50.766Z,76.03
2019-02-23T00:27:51.077Z,76.18
2019-02-23T00:28:51.086Z,76.12
2019-02-23T00:29:51.101Z,76.11
2019-02-23T00:30:51.210Z,76.21
2019-02-23T00:31:52.124Z,76.22
2019-02-23T00:32:51.777Z,76.36
2019-02-23T00:33:51.031Z,76.3
2019-02-23T00:34:51.133Z,76.36
2019-02-23T00:35:50.798Z,76.38
2019-02-23T00:36:50.788Z,76.32
2019-02-23T00:37:52.607Z,76.49
2019-02-23T00:38:50.512Z,76.4
2019-02-23T00:39:50.501Z,76.55
2019-02-23T00:40:51.074Z,76.43
2019-02-23T00:41:50.671Z,76.44
2019-02-23T00:42:51.091Z,76.56
2019-02-23T00:43:51.208Z,76.58
2019-02-23T00:44:50.675Z,76.59
2019-02-23T00:45:50.808Z,76.58
2019-02-23T00:46:50.808Z,76.57
2019-02-23T00:47:51.122Z,76.64
2019-02-23T00:48:50.688Z,76.75
2019-02-23T00:49:50.684Z,76.68
2019-02-23T00:50:51.143Z,76.66
2019-02-23T00:51:52.155Z,76.67
2019-02-23T00:52:51.058Z,76.67
2019-02-23T00:53:51.678Z,76.54
2019-02-23T00:54:52.501Z,76.67
2019-02-23T00:55:51.053Z,76.7
2019-02-23T00:56:51.287Z,76.74
2019-02-23T00:57:51.084Z,76.88
2019-02-23T00:58:51.096Z,76.92
2019-02-23T00:59:51.314Z,77.03
2019-02-23T01:00:50.722Z,76.82
2019-02-23T01:01:50.914Z,77
2019-02-23T01:02:51.004Z,77.04
2019-02-23T01:03:51.601Z,77.04
2019-02-23T01:04:51.225Z,77.16
2019-02-23T01:05:51.030Z,77.12
2019-02-23T01:06:50.773Z,77.19
2019-02-23T01:07:50.673Z,77.13
2019-02-23T01:08:52.500Z,77.31
2019-02-23T01:09:50.964Z,77.32
2019-02-23T01:10:58.648Z,77.33
2019-02-23T01:11:50.716Z,77.37
2019-02-23T01:12:50.828Z,77.46
2019-02-23T01:13:51.000Z,77.41
2019-02-23T01:14:51.823Z,77.46
2019-02-23T01:15:52.467Z,77.13
2019-02-23T01:16:51.089Z,77.21
2019-02-23T01:17:52.587Z,77.07
2019-02-23T01:18:50.759Z,77.01
2019-02-23T01:19:51.027Z,77
2019-02-23T01:20:50.635Z,76.94
2019-02-23T01:21:51.251Z,76.92
2019-02-23T01:22:50.663Z,76.87
2019-02-23T01:23:50.735Z,76.93
2019-02-23T01:24:50.713Z,76.84
2019-02-23T01:25:51.159Z,76.65
2019-02-23T01:26:51.268Z,76.68
2019-02-23T01:27:50.624Z,76.64
2019-02-23T01:28:50.994Z,76.66
2019-02-23T01:29:50.932Z,76.69
2019-02-23T01:30:50.760Z,76.66
2019-02-23T01:31:52.440Z,76.68
2019-02-23T01:32:50.907Z,76.74
2019-02-23T01:33:50.597Z,76.75
2019-02-23T01:34:51.318Z,76.79
2019-02-23T01:35:51.015Z,76.91
2019-02-23T01:36:52.422Z,76.84
2019-02-23T01:37:50.593Z,76.85
2019-02-23T01:38:50.585Z,77.05
2019-02-23T01:39:50.932Z,76.94
2019-02-23T01:40:50.650Z,77
2019-02-23T01:41:51.256Z,77.03
2019-02-23T01:42:50.768Z,77.11
2019-02-23T01:43:52.122Z,77
2019-02-23T01:44:51.352Z,76.94
2019-02-23T01:45:50.932Z,77.11
2019-02-23T01:46:50.655Z,76.98
2019-02-23T01:47:50.904Z,77
2019-02-23T01:48:50.677Z,77.06
2019-02-23T01:49:59.519Z,77.05
2019-02-23T01:50:50.593Z,77.02
2019-02-23T01:51:50.739Z,77
2019-02-23T01:52:50.955Z,76.97
2019-02-23T01:53:50.927Z,77.1
2019-02-23T01:54:51.042Z,77.08
2019-02-23T01:55:50.741Z,76.96
2019-02-23T01:56:50.629Z,77.13
2019-02-23T01:57:51.560Z,77.03
2019-02-23T01:58:51.273Z,76.91
2019-02-23T01:59:50.637Z,76.83
2019-02-23T02:00:50.989Z,76.9
2019-02-23T02:01:50.680Z,76.82
2019-02-23T02:02:50.392Z,76.81
2019-02-23T02:03:50.782Z,77.01
2019-02-23T02:04:50.907Z,76.81
2019-02-23T02:05:51.111Z,76.76
2019-02-23T02:06:50.594Z,76.82
2019-02-23T02:07:50.586Z,76.72
2019-02-23T02:08:52.426Z,76.76
2019-02-23T02:09:51.154Z,76.97
2019-02-23T02:10:50.732Z,77.03
2019-02-23T02:11:51.471Z,76.84
2019-02-23T02:12:50.760Z,76.86
2019-02-23T02:13:50.649Z,76.74
2019-02-23T02:14:50.646Z,76.89
2019-02-23T02:15:52.298Z,76.82
2019-02-23T02:16:51.402Z,76.85
2019-02-23T02:17:50.864Z,76.84
2019-02-23T02:18:51.420Z,76.74
2019-02-23T02:19:52.387Z,76.74
2019-02-23T02:20:51.485Z,76.95
2019-02-23T02:21:51.510Z,76.68
2019-02-23T02:22:50.649Z,76.78
2019-02-23T02:23:50.731Z,76.8
2019-02-23T02:24:52.375Z,76.86
2019-02-23T02:25:50.837Z,76.96
2019-02-23T02:26:50.699Z,77.02
2019-02-23T02:27:50.947Z,77.14
2019-02-23T02:28:50.698Z,77.02
2019-02-23T02:29:50.505Z,77.03
2019-02-23T02:30:51.273Z,76.99
2019-02-23T02:31:50.979Z,76.98
2019-02-23T02:32:51.415Z,77.03
2019-02-23T02:33:50.700Z,77.01
2019-02-23T02:34:50.897Z,77.02
2019-02-23T02:35:50.607Z,77.02
2019-02-23T02:36:50.593Z,77.13
2019-02-23T02:37:51.144Z,77.24
2019-02-23T02:38:50.788Z,77.21
2019-02-23T02:39:50.739Z,77.14
2019-02-23T02:40:50.601Z,77.01
2019-02-23T02:41:51.846Z,77.06
2019-02-23T02:42:52.322Z,77.07
2019-02-23T02:43:50.516Z,76.98
2019-02-23T02:44:51.069Z,77.06
2019-02-23T02:45:50.777Z,76.95
2019-02-23T02:46:50.512Z,77.15
2019-02-23T02:47:51.022Z,77.19
2019-02-23T02:48:50.560Z,77.2
2019-02-23T02:49:50.668Z,77.4
2019-02-23T02:50:50.574Z,77.25
2019-02-23T02:51:50.913Z,77.29
2019-02-23T02:52:51.646Z,77.28
2019-02-23T02:53:50.628Z,77.34
2019-02-23T02:54:50.505Z,77.44
2019-02-23T02:55:50.562Z,77.62
2019-02-23T02:56:52.385Z,77.42
2019-02-23T02:57:51.677Z,77.51
2019-02-23T02:58:50.631Z,77.49
2019-02-23T02:59:50.865Z,77.71
2019-02-23T03:00:50.646Z,77.63
2019-02-23T03:01:50.760Z,77.48
2019-02-23T03:02:52.324Z,77.68
2019-02-23T03:03:51.360Z,77.78
2019-02-23T03:04:50.719Z,77.83
2019-02-23T03:05:52.336Z,77.73
2019-02-23T03:06:50.835Z,77.82
2019-02-23T03:07:50.697Z,77.75
2019-02-23T03:08:50.677Z,77.74
2019-02-23T03:09:50.640Z,77.81
2019-02-23T03:10:52.301Z,77.87
2019-02-23T03:11:52.328Z,78.14
2019-02-23T03:12:50.435Z,78.08
2019-02-23T03:13:50.522Z,78.12
2019-02-23T03:14:50.976Z,78.28
2019-02-23T03:15:50.642Z,78.3
2019-02-23T03:16:50.762Z,78.24
2019-02-23T03:17:50.768Z,78.39
2019-02-23T03:18:50.902Z,78.36
2019-02-23T03:19:50.676Z,78.37
2019-02-23T03:20:50.449Z,78.29
2019-02-23T03:21:52.556Z,78.43
2019-02-23T03:22:50.257Z,78.28
2019-02-23T03:23:50.286Z,78.19
2019-02-23T03:24:50.282Z,78.31
2019-02-23T03:25:51.235Z,78.28
2019-02-23T03:26:52.309Z,78.28
2019-02-23T03:27:50.523Z,78.45
2019-02-23T03:28:50.507Z,78.36
2019-02-23T03:29:50.574Z,78.34
2019-02-23T03:30:50.682Z,78.3
2019-02-23T03:31:50.681Z,78.47
2019-02-23T03:32:51.558Z,78.25
2019-02-23T03:33:50.489Z,78.24
2019-02-23T03:34:51.333Z,78.25
2019-02-23T03:35:51.016Z,78.26
2019-02-23T03:36:50.433Z,78.43
2019-02-23T03:37:50.439Z,78.43
2019-02-23T03:38:50.711Z,78.5
2019-02-23T03:39:50.431Z,78.4
2019-02-23T03:40:50.449Z,78.49
2019-02-23T03:41:50.581Z,78.41
2019-02-23T03:42:50.616Z,78.51
2019-02-23T03:43:50.429Z,78.52
2019-02-23T03:44:50.407Z,78.55
2019-02-23T03:45:50.967Z,78.53
2019-02-23T03:46:51.472Z,78.53
2019-02-23T03:47:50.454Z,78.55
2019-02-23T03:48:50.565Z,78.5
2019-02-23T03:49:50.379Z,78.58
2019-02-23T03:50:50.487Z,78.57
2019-02-23T03:51:50.494Z,78.43
2019-02-23T03:52:52.256Z,78.52
2019-02-23T03:53:50.692Z,78.48
2019-02-23T03:54:50.479Z,78.56
2019-02-23T03:55:51.627Z,78.53
2019-02-23T03:56:50.612Z,78.64
2019-02-23T03:57:50.463Z,78.55
2019-02-23T03:58:52.239Z,78.49
2019-02-23T03:59:51.046Z,78.53
2019-02-23T04:00:50.508Z,78.54
2019-02-23T04:01:50.419Z,78.63
2019-02-23T04:02:51.053Z,78.57
2019-02-23T04:03:50.414Z,78.52
2019-02-23T04:04:50.506Z,78.64
2019-02-23T04:05:50.792Z,78.65
2019-02-23T04:06:50.615Z,78.56
2019-02-23T04:07:51.215Z,78.62
2019-02-23T04:08:52.217Z,78.6
2019-02-23T04:09:50.601Z,78.61
2019-02-23T04:10:50.508Z,78.58
2019-02-23T04:11:50.729Z,78.63
2019-02-23T04:12:50.205Z,78.67
2019-02-23T04:13:50.736Z,78.57
2019-02-23T04:14:50.457Z,78.62
2019-02-23T04:15:50.483Z,78.56
2019-02-23T04:16:51.338Z,78.77
2019-02-23T04:17:50.658Z,78.62
2019-02-23T04:18:51.075Z,78.63
2019-02-23T04:19:50.364Z,78.68
2019-02-23T04:21:02.308Z,78.51
2019-02-23T04:21:50.388Z,78.4
2019-02-23T04:22:50.574Z,78.45
2019-02-23T04:23:50.346Z,78.26
2019-02-23T04:24:50.823Z,78.28
2019-02-23T04:25:50.354Z,78.36
2019-02-23T04:26:50.728Z,78.41
2019-02-23T04:27:50.727Z,78.52
2019-02-23T04:28:51.559Z,78.61
2019-02-23T04:29:50.858Z,78.68
2019-02-23T04:30:50.452Z,78.68
2019-02-23T04:31:50.456Z,78.73
2019-02-23T04:32:50.664Z,78.92
2019-02-23T04:33:50.472Z,78.98
2019-02-23T04:34:50.761Z,78.97
2019-02-23T04:35:50.486Z,78.88
2019-02-23T04:36:50.363Z,78.97
2019-02-23T04:37:50.804Z,79
2019-02-23T04:38:51.332Z,79.2
2019-02-23T04:39:50.464Z,79.09
2019-02-23T04:40:50.313Z,79.13
2019-02-23T04:41:50.819Z,79.12
2019-02-23T04:42:50.342Z,79.14
2019-02-23T04:43:50.356Z,79.13
2019-02-23T04:44:50.749Z,79.16
2019-02-23T04:45:51.350Z,79.29
2019-02-23T04:46:50.647Z,79.2
2019-02-23T04:47:50.661Z,79.31
2019-02-23T04:48:50.863Z,79.33
2019-02-23T04:49:50.373Z,79.33
2019-02-23T04:50:50.771Z,79.24
2019-02-23T04:51:50.883Z,79.28
2019-02-23T04:52:50.738Z,79.39
2019-02-23T04:53:50.519Z,79.25
2019-02-23T04:54:50.425Z,79.35
2019-02-23T04:55:50.379Z,79.35
2019-02-23T04:56:50.349Z,79.24
2019-02-23T04:57:50.432Z,79.34
2019-02-23T04:58:50.616Z,79.39
2019-02-23T04:59:50.534Z,79.24
2019-02-23T05:00:50.734Z,79.27
2019-02-23T05:01:50.327Z,78.97
2019-02-23T05:02:50.305Z,79.15
2019-02-23T05:03:50.456Z,79.14
2019-02-23T05:04:50.767Z,79.29
2019-02-23T05:05:50.764Z,79.39
2019-02-23T05:06:50.685Z,79.26
2019-02-23T05:07:50.335Z,79.31
2019-02-23T05:08:50.261Z,79.2
2019-02-23T05:09:50.584Z,79.35
2019-02-23T05:10:50.455Z,79.33
2019-02-23T05:11:51.895Z,79.66
2019-02-23T05:12:51.377Z,79.75
2019-02-23T05:13:50.519Z,79.33
2019-02-23T05:14:50.344Z,79.43
2019-02-23T05:15:51.045Z,79.59
2019-02-23T05:16:50.466Z,79.53
2019-02-23T05:17:50.665Z,79.35
2019-02-23T05:18:50.364Z,79.24
2019-02-23T05:19:50.873Z,79.56
2019-02-23T05:20:50.334Z,79.56
2019-02-23T05:21:50.560Z,79.59
2019-02-23T05:22:50.690Z,79.49
2019-02-23T05:23:50.475Z,79.67
2019-02-23T05:24:53.618Z,79.5
2019-02-23T05:25:50.456Z,79.43
2019-02-23T05:26:50.326Z,79.45
2019-02-23T05:27:50.359Z,79.47
2019-02-23T05:28:50.723Z,79.49
2019-02-23T05:29:50.596Z,79.76
2019-02-23T05:30:50.468Z,79.64
2019-02-23T05:31:50.746Z,79.53
2019-02-23T05:32:50.756Z,79.63
2019-02-23T05:33:52.107Z,79.55
2019-02-23T05:34:52.119Z,79.67
2019-02-23T05:35:50.423Z,79.73
2019-02-23T05:36:50.293Z,79.8
2019-02-23T05:37:51.001Z,79.76
2019-02-23T05:38:50.676Z,79.53
2019-02-23T05:39:50.703Z,79.66
2019-02-23T05:40:50.387Z,79.62
2019-02-23T05:41:50.343Z,79.43
2019-02-23T05:43:01.659Z,79.53
2019-02-23T05:43:50.417Z,79.67
2019-02-23T05:44:50.358Z,79.51
2019-02-23T05:45:50.621Z,79.83
2019-02-23T05:46:50.848Z,79.59
2019-02-23T05:47:50.384Z,79.73
2019-02-23T05:48:50.347Z,79.84
2019-02-23T05:49:50.859Z,79.69
2019-02-23T05:50:50.741Z,79.87
2019-02-23T05:51:50.349Z,79.87
2019-02-23T05:52:50.691Z,79.83
2019-02-23T05:53:50.785Z,79.92
2019-02-23T05:54:50.924Z,80.04
2019-02-23T05:55:51.703Z,80.06
2019-02-23T05:56:52.063Z,80.13
2019-02-23T05:57:50.639Z,80.21
2019-02-23T05:58:50.643Z,80.25
2019-02-23T05:59:50.506Z,80.22
2019-02-23T06:00:50.755Z,80.27
2019-02-23T06:01:51.244Z,80.06
2019-02-23T06:02:50.550Z,80.28
2019-02-23T06:03:50.398Z,80.4
2019-02-23T06:04:50.196Z,80.2
2019-02-23T06:05:50.353Z,80.27
2019-02-23T06:06:50.313Z,80.16
2019-02-23T06:07:51.083Z,80.08
2019-02-23T06:08:50.178Z,80.25
2019-02-23T06:09:50.026Z,80.33
2019-02-23T06:10:50.293Z,80.22
2019-02-23T06:11:50.218Z,80.19
2019-02-23T06:12:51.169Z,80.36
2019-02-23T06:13:50.261Z,80.49
2019-02-23T06:14:50.527Z,80.27
2019-02-23T06:15:50.928Z,80.21
2019-02-23T06:16:50.738Z,80.11
2019-02-23T06:17:50.145Z,80.24
2019-02-23T06:18:50.544Z,80.39
2019-02-23T06:19:50.432Z,80.24
2019-02-23T06:20:50.331Z,80.31
2019-02-23T06:21:54.913Z,80.26
2019-02-23T06:22:50.352Z,80.25
2019-02-23T06:23:50.021Z,80.23
2019-02-23T06:24:50.032Z,80.37
2019-02-23T06:25:50.027Z,80.38
2019-02-23T06:26:50.003Z,80.37
2019-02-23T06:27:50.014Z,80.6
2019-02-23T06:28:50.002Z,80.61
2019-02-23T06:29:50.152Z,80.54
2019-02-23T06:30:50.626Z,80.47
2019-02-23T06:31:50.318Z,80.6
2019-02-23T06:32:50.134Z,80.67
2019-02-23T06:33:50.283Z,80.69
2019-02-23T06:34:50.293Z,80.69
2019-02-23T06:35:50.426Z,80.6
2019-02-23T06:36:50.307Z,80.57
2019-02-23T06:37:53.600Z,80.56
2019-02-23T06:38:50.907Z,80.6
2019-02-23T06:39:50.219Z,80.61
2019-02-23T06:40:50.487Z,80.48
2019-02-23T06:41:50.268Z,80.52
2019-02-23T06:42:50.705Z,80.33
2019-02-23T06:43:50.399Z,80.49
2019-02-23T06:44:50.398Z,80.25
2019-02-23T06:45:51.016Z,80.39
2019-02-23T06:46:50.286Z,80.23
2019-02-23T06:47:50.139Z,80.22
2019-02-23T06:48:50.301Z,80.09
2019-02-23T06:49:50.154Z,80.12
2019-02-23T06:50:50.553Z,80.12
2019-02-23T06:51:50.563Z,80.11
2019-02-23T06:52:49.943Z,80.21
2019-02-23T06:53:51.336Z,80.06
2019-02-23T06:54:50.998Z,80.08
2019-02-23T06:55:50.112Z,80.18
2019-02-23T06:56:50.350Z,80.12
2019-02-23T06:57:51.031Z,80.09
2019-02-23T06:58:50.295Z,80.05
2019-02-23T06:59:50.923Z,80.08
2019-02-23T07:00:50.108Z,80.08
2019-02-23T07:01:50.315Z,80.01
2019-02-23T07:02:50.196Z,79.98
2019-02-23T07:03:50.324Z,79.85
2019-02-23T07:04:50.097Z,79.86
2019-02-23T07:05:50.246Z,79.78
2019-02-23T07:06:50.227Z,79.7
2019-02-23T07:07:50.529Z,79.84
2019-02-23T07:08:50.136Z,79.73
2019-02-23T07:09:50.289Z,79.83
2019-02-23T07:10:50.476Z,79.77
2019-02-23T07:11:50.175Z,79.79
2019-02-23T07:12:50.577Z,79.76
2019-02-23T07:13:50.693Z,79.82
2019-02-23T07:14:50.131Z,79.68
2019-02-23T07:15:50.135Z,79.6
2019-02-23T07:16:50.420Z,79.6
2019-02-23T07:17:50.968Z,79.6
2019-02-23T07:18:50.727Z,79.48
2019-02-23T07:19:50.403Z,79.5
2019-02-23T07:20:50.445Z,79.25
2019-02-23T07:21:50.645Z,79.07
2019-02-23T07:22:50.350Z,79.02
2019-02-23T07:23:50.219Z,79.05
2019-02-23T07:24:50.098Z,79.06
2019-02-23T07:25:50.116Z,79.06
2019-02-23T07:26:50.498Z,79
2019-02-23T07:27:50.824Z,78.86
2019-02-23T07:28:50.379Z,78.85
2019-02-23T07:29:50.061Z,78.96
2019-02-23T07:30:50.290Z,78.84
2019-02-23T07:31:50.406Z,78.73
2019-02-23T07:32:50.533Z,78.61
2019-02-23T07:33:50.672Z,78.58
2019-02-23T07:34:50.516Z,78.53
2019-02-23T07:35:50.124Z,78.67
2019-02-23T07:36:51.910Z,78.75
2019-02-23T07:37:50.128Z,78.2
2019-02-23T07:38:51.285Z,78.43
2019-02-23T07:39:50.455Z,78.32
2019-02-23T07:40:50.361Z,78.26
2019-02-23T07:41:50.196Z,78.18
2019-02-23T07:42:51.105Z,78.19
2019-02-23T07:43:50.962Z,78
2019-02-23T07:44:50.227Z,78.02
2019-02-23T07:45:50.929Z,77.87
2019-02-23T07:46:50.512Z,77.82
2019-02-23T07:47:50.035Z,77.56
2019-02-23T07:48:50.371Z,77.59
2019-02-23T07:49:50.114Z,77.55
2019-02-23T07:50:52.852Z,77.5
2019-02-23T07:51:51.047Z,77.4
2019-02-23T07:52:50.329Z,77.4
2019-02-23T07:53:50.140Z,77.64
2019-02-23T07:54:50.280Z,77.27
2019-02-23T07:55:50.362Z,77.24
2019-02-23T07:56:50.263Z,77.06
2019-02-23T07:57:51.870Z,77.21
2019-02-23T07:58:50.105Z,77.22
2019-02-23T07:59:50.509Z,76.84
2019-02-23T08:00:50.511Z,77.02
2019-02-23T08:01:50.106Z,76.81
2019-02-23T08:02:50.390Z,76.58
2019-02-23T08:03:50.740Z,76.66
2019-02-23T08:04:52.234Z,76.51
2019-02-23T08:05:50.527Z,76.39
2019-02-23T08:06:50.028Z,76.06
2019-02-23T08:07:50.553Z,76.16
2019-02-23T08:08:50.087Z,76.29
2019-02-23T08:09:50.244Z,76.03
2019-02-23T08:10:50.487Z,76.13
2019-02-23T08:11:51.862Z,76.18
2019-02-23T08:12:51.866Z,76.04
2019-02-23T08:13:50.039Z,75.91
2019-02-23T08:14:50.188Z,75.77
2019-02-23T08:15:50.089Z,75.4
2019-02-23T08:16:50.329Z,75.44
2019-02-23T08:17:50.145Z,75.5
2019-02-23T08:18:50.057Z,75.34
2019-02-23T08:19:50.210Z,75.45
2019-02-23T08:20:50.372Z,74.86
2019-02-23T08:21:50.847Z,74.84
2019-02-23T08:22:51.032Z,75.15
2019-02-23T08:23:50.492Z,74.99
2019-02-23T08:24:50.345Z,74.84
2019-02-23T08:25:50.689Z,74.89
2019-02-23T08:26:51.278Z,74.69
2019-02-23T08:27:50.366Z,74.56
2019-02-23T08:28:50.286Z,74.62
2019-02-23T08:29:50.164Z,74.47
2019-02-23T08:30:50.099Z,74.35
2019-02-23T08:31:50.077Z,74.26
2019-02-23T08:32:50.501Z,74.38
2019-02-23T08:33:50.311Z,73.79
2019-02-23T08:34:50.112Z,73.62
2019-02-23T08:35:49.802Z,73.8
2019-02-23T08:36:50.430Z,73.75
2019-02-23T08:37:50.663Z,73.65
2019-02-23T08:38:50.146Z,73.45
2019-02-23T08:39:50.046Z,73.31
2019-02-23T08:40:50.016Z,72.98
2019-02-23T08:41:50.051Z,72.96
2019-02-23T08:42:50.582Z,72.8
2019-02-23T08:43:51.810Z,72.68
2019-02-23T08:44:50.046Z,72.88
2019-02-23T08:45:50.117Z,72.97
2019-02-23T08:46:50.075Z,72.54
2019-02-23T08:47:50.419Z,72.49
2019-02-23T08:48:50.409Z,72.21
2019-02-23T08:49:50.108Z,71.96
2019-02-23T08:50:50.337Z,72.04
2019-02-23T08:51:50.070Z,72.18
2019-02-23T08:52:50.644Z,72.23
2019-02-23T08:53:49.961Z,72.32
2019-02-23T08:54:50.444Z,72.09
2019-02-23T08:55:50.099Z,72.07
2019-02-23T08:56:50.023Z,72.26
2019-02-23T08:57:50.263Z,72.48
2019-02-23T08:58:50.073Z,72.18
2019-02-23T08:59:50.057Z,71.93
2019-02-23T09:00:50.070Z,71.65
2019-02-23T09:01:49.939Z,72.08
2019-02-23T09:02:50.102Z,71.94
2019-02-23T09:03:50.025Z,71.37
2019-02-23T09:04:50.102Z,71.67
2019-02-23T09:05:51.783Z,71.45
2019-02-23T09:06:50.048Z,71.52
2019-02-23T09:07:50.344Z,71.51
2019-02-23T09:08:50.647Z,71.21
2019-02-23T09:09:51.658Z,71.44
2019-02-23T09:10:50.182Z,71.09
2019-02-23T09:11:50.104Z,71.07
2019-02-23T09:12:50.109Z,71.2
2019-02-23T09:13:50.035Z,70.56
2019-02-23T09:14:50.495Z,71.18
2019-02-23T09:15:50.479Z,71.03
2019-02-23T09:16:50.593Z,71.36
2019-02-23T09:17:50.093Z,70.42
2019-02-23T09:18:50.195Z,70.12
2019-02-23T09:19:49.901Z,69.88
2019-02-23T09:20:52.236Z,69.68
2019-02-23T09:21:51.758Z,69.64
2019-02-23T09:23:00.702Z,69.94
2019-02-23T09:23:50.345Z,69.94
2019-02-23T09:24:50.152Z,70.11
2019-02-23T09:25:50.025Z,69.25
2019-02-23T09:26:49.991Z,69.06
2019-02-23T09:27:50.119Z,68.56
2019-02-23T09:28:50.018Z,68.44
2019-02-23T09:29:50.110Z,68.33
2019-02-23T09:30:50.712Z,68.56
2019-02-23T09:31:50.178Z,68.9
2019-02-23T09:32:50.026Z,69
2019-02-23T09:33:50.506Z,68.72
2019-02-23T09:34:50.301Z,68.78
2019-02-23T09:35:50.136Z,68.64
2019-02-23T09:36:49.989Z,68.27
2019-02-23T09:37:50.045Z,68.63
2019-02-23T09:38:50.180Z,68.3
2019-02-23T09:39:49.962Z,68.14
2019-02-23T09:40:49.971Z,67.84
2019-02-23T09:41:49.987Z,67.92
2019-02-23T09:42:50.157Z,68.25
2019-02-23T09:43:49.877Z,67.76
2019-02-23T09:44:50.176Z,67.93
2019-02-23T09:45:50.261Z,68.12
2019-02-23T09:46:49.995Z,67.87
2019-02-23T09:47:50.395Z,68.01
2019-02-23T09:48:50.086Z,67.34
2019-02-23T09:49:50.417Z,67.16
2019-02-23T09:50:51.777Z,66.85
2019-02-23T09:51:51.741Z,67.12
2019-02-23T09:52:50.636Z,67.13
2019-02-23T09:53:49.863Z,67.26
2019-02-23T09:54:50.066Z,66.44
2019-02-23T09:55:50.026Z,66.96
2019-02-23T09:56:51.716Z,66.84
2019-02-23T09:57:50.418Z,66.76
2019-02-23T09:58:50.069Z,66.61
2019-02-23T09:59:49.995Z,66.2
2019-02-23T10:00:50.185Z,66.13
2019-02-23T10:01:50.097Z,65.62
2019-02-23T10:02:49.985Z,65.78
2019-02-23T10:03:50.398Z,65.46
2019-02-23T10:04:49.997Z,65.6
2019-02-23T10:05:49.974Z,64.86
2019-02-23T10:06:50.630Z,65.1
2019-02-23T10:07:49.946Z,65.55
2019-02-23T10:08:49.868Z,65.37
2019-02-23T10:09:49.826Z,65.1
2019-02-23T10:10:49.844Z,64.52
2019-02-23T10:11:50.339Z,64.03
2019-02-23T10:12:50.305Z,63.71
2019-02-23T10:13:51.678Z,64.11
2019-02-23T10:14:50.167Z,64.26
2019-02-23T10:15:50.043Z,63.57
2019-02-23T10:16:50.456Z,63.63
2019-02-23T10:17:50.101Z,63.81
2019-02-23T10:18:49.916Z,63.49
2019-02-23T10:19:50.205Z,63.13
2019-02-23T10:20:49.919Z,62.99
2019-02-23T10:21:50.116Z,62.82
2019-02-23T10:22:50.210Z,63.02
2019-02-23T10:23:50.319Z,62.77
2019-02-23T10:24:50.137Z,62.28
2019-02-23T10:25:49.798Z,62.61
2019-02-23T10:26:50.771Z,62.6
2019-02-23T10:27:50.107Z,62.05
2019-02-23T10:28:49.796Z,61.88
2019-02-23T10:29:49.861Z,62.42
2019-02-23T10:30:49.922Z,62.32
2019-02-23T10:31:49.842Z,61.68
2019-02-23T10:32:49.979Z,62.05
2019-02-23T10:33:49.786Z,61.25
2019-02-23T10:34:49.987Z,61.02
2019-02-23T10:35:50.098Z,61.76
2019-02-23T10:36:51.651Z,61.34
2019-02-23T10:37:50.015Z,61.26
2019-02-23T10:38:50.119Z,60.89
2019-02-23T10:39:51.654Z,61.29
2019-02-23T10:40:51.662Z,60.65
2019-02-23T10:41:50.243Z,60.77
2019-02-23T10:42:49.832Z,60.53
2019-02-23T10:43:50.054Z,60.58
2019-02-23T10:44:50.572Z,60.33
2019-02-23T10:45:49.927Z,60.26
2019-02-23T10:46:49.919Z,60.4
2019-02-23T10:47:50.525Z,60.54
2019-02-23T10:48:49.804Z,59.72
2019-02-23T10:49:49.763Z,60.1
2019-02-23T10:50:50.093Z,59.43
2019-02-23T10:51:49.831Z,57.97
2019-02-23T10:52:50.656Z,57.77
2019-02-23T10:53:50.109Z,58.08
2019-02-23T10:54:50.248Z,57.79
2019-02-23T10:55:50.771Z,56.87
2019-02-23T10:56:51.164Z,57.25
2019-02-23T10:57:50.335Z,57.03
2019-02-23T10:58:50.652Z,57.98
2019-02-23T10:59:49.935Z,57.51
2019-02-23T11:00:50.277Z,57.8
2019-02-23T11:01:51.684Z,58.1
2019-02-23T11:02:51.120Z,57.86
2019-02-23T11:03:49.999Z,58.15
2019-02-23T11:04:49.967Z,58.22
2019-02-23T11:05:50.103Z,57.37
2019-02-23T11:06:49.994Z,57.21
2019-02-23T11:07:49.768Z,57.86
2019-02-23T11:08:49.746Z,57.88
2019-02-23T11:09:49.757Z,57.83
2019-02-23T11:10:51.594Z,57.69
2019-02-23T11:11:49.583Z,57.48
2019-02-23T11:12:49.568Z,56.68
2019-02-23T11:13:49.739Z,55.08
2019-02-23T11:14:49.781Z,55.26
2019-02-23T11:15:50.058Z,54.69
2019-02-23T11:16:51.625Z,54.72
2019-02-23T11:17:50.066Z,53.81
2019-02-23T11:18:50.656Z,53.62
2019-02-23T11:19:49.978Z,54.73
2019-02-23T11:20:49.570Z,54.29
2019-02-23T11:21:50.297Z,52.51
2019-02-23T11:22:50.526Z,53.14
2019-02-23T11:23:49.779Z,52.54
2019-02-23T11:24:49.748Z,52.32
2019-02-23T11:25:50.529Z,51.9
2019-02-23T11:26:49.764Z,51.65
2019-02-23T11:27:49.715Z,51.69
2019-02-23T11:28:50.154Z,52.29
2019-02-23T11:29:49.743Z,52.54
2019-02-23T11:30:50.058Z,51.5
2019-02-23T11:31:51.565Z,51.8
2019-02-23T11:32:50.603Z,51.9
2019-02-23T11:33:50.169Z,51.75
2019-02-23T11:34:50.217Z,50.03
2019-02-23T11:35:50.046Z,49.94
2019-02-23T11:36:49.711Z,50.41
2019-02-23T11:37:50.211Z,49.66
2019-02-23T11:38:50.084Z,48.72
2019-02-23T11:39:51.134Z,48.57
2019-02-23T11:40:50.330Z,47.3
2019-02-23T11:41:49.803Z,47.52
2019-02-23T11:42:50.038Z,46.85
2019-02-23T11:43:50.451Z,43.54
2019-02-23T11:44:49.746Z,45.67
2019-02-23T11:45:50.357Z,46.37
2019-02-23T11:47:00.740Z,44.77
2019-02-23T11:47:49.718Z,44.24
2019-02-23T11:48:50.520Z,44.39
2019-02-23T11:49:50.090Z,44.51
2019-02-23T11:50:49.687Z,44.56
2019-02-23T11:51:50.562Z,43.31
2019-02-23T11:52:50.112Z,44.16
2019-02-23T11:53:55.524Z,43.6
2019-02-23T11:54:50.119Z,43.75
2019-02-23T11:55:49.662Z,43.05
2019-02-23T11:56:49.799Z,42.28
2019-02-23T11:57:50.098Z,42.18
2019-02-23T11:58:50.053Z,42.9
2019-02-23T11:59:49.786Z,43.38
2019-02-23T12:00:49.755Z,42.48
2019-02-23T12:01:50.535Z,43.08
2019-02-23T12:02:53.090Z,43.64
2019-02-23T12:03:49.721Z,43.48
2019-02-23T12:04:50.174Z,43.02
2019-02-23T12:05:50.097Z,43.9
2019-02-23T12:06:49.729Z,41.91
2019-02-23T12:07:49.890Z,40.74
2019-02-23T12:08:49.733Z,41.48
2019-02-23T12:09:49.736Z,39.75
2019-02-23T12:10:49.672Z,39.82
2019-02-23T12:11:49.677Z,40.41
2019-02-23T12:12:49.930Z,39.01
2019-02-23T12:13:49.791Z,40.09
2019-02-23T12:14:50.203Z,40.59
2019-02-23T12:15:49.660Z,39.31
2019-02-23T12:16:49.675Z,38.4
2019-02-23T12:17:50.278Z,39.2
2019-02-23T12:18:49.968Z,39.34
2019-02-23T12:19:51.499Z,39.64
2019-02-23T12:20:50.081Z,39.85
2019-02-23T12:21:49.776Z,40.69
2019-02-23T12:22:50.401Z,39.53
2019-02-23T12:23:51.500Z,38.98
2019-02-23T12:24:49.813Z,40.29
2019-02-23T12:25:51.052Z,39.11
2019-02-23T12:26:49.783Z,38.57
2019-02-23T12:27:49.770Z,38.25
2019-02-23T12:28:49.695Z,36.72
2019-02-23T12:29:49.701Z,36.15
2019-02-23T12:30:49.727Z,36.18
2019-02-23T12:31:49.720Z,34.61
2019-02-23T12:32:49.616Z,35.97
2019-02-23T12:33:49.642Z,35.52
2019-02-23T12:34:49.787Z,34.98
2019-02-23T12:35:49.610Z,35.72
2019-02-23T12:36:49.639Z,35.95
2019-02-23T12:37:49.665Z,36.49
2019-02-23T12:38:50.107Z,36.13
2019-02-23T12:39:49.677Z,37.8
2019-02-23T12:40:49.689Z,36.67
2019-02-23T12:41:50.227Z,37.11
2019-02-23T12:42:50.330Z,37.33
2019-02-23T12:43:50.140Z,37.37
2019-02-23T12:44:51.147Z,36.94
2019-02-23T12:45:50.047Z,37.25
2019-02-23T12:46:49.783Z,37.88
2019-02-23T12:47:51.456Z,35.9
2019-02-23T12:48:49.977Z,35.99
2019-02-23T12:49:49.767Z,34.12
2019-02-23T12:50:49.706Z,34.26
2019-02-23T12:51:49.883Z,32.71
2019-02-23T12:52:49.641Z,33.89
2019-02-23T12:53:51.456Z,33.4
2019-02-23T12:54:50.483Z,34.12
2019-02-23T12:55:50.207Z,35.6